Terminal Aerodrome Forecast
Issued by NWS

Current Version | Previous Version | Text Only | Print | Product List | Glossary On
Versions: 1 2 3 4 5 6 7 8 9 10 11 12 13 14
000
FTUS44 KTSA 251134
TAFFYV
TAF
KFYV 251134Z 2512/2612 30005KT P6SM OVC100
     FM251500 34008KT 6SM -SHRA OVC025
     FM251700 31010KT 4SM -SHRA BR OVC007
     FM260300 31010KT 4SM -DZ BR OVC004=

USA.gov is the U.S. government's official web portal to all federal, state and local government web resources and services.